ECNJF EPKT-EPWA
Flight info
| Callsign | ECNJF |
|---|---|
| Flight time | N/A |
| Altitude | 25000 |
| Route | KURON T709 KOTEK M866 LOGDA |
| Aircraft | SF50/L-SDGRWY/L |
Departure
| Time | 2026-05-06 16:36 |
|---|---|
| Airport | Katowice Wojciech Korfanty International Airport (EPKT) |
Arrival
| Time | N/A |
|---|---|
| Airport | Warsaw Chopin Airport (EPWA) |
| Time | Latitude | Longitude | Altitude | Speed | Heading |
|---|---|---|---|---|---|
| 2026-05-06 16:14 | 50.47143 | 19.08820 | 992 ft | 0 kts | 180° |
| 2026-05-06 16:21 | 50.47144 | 19.08820 | 992 ft | 0 kts | 180° |
| 2026-05-06 16:23 | 50.47147 | 19.08820 | 992 ft | 1 kts | 180° |
| 2026-05-06 16:23 | 50.47165 | 19.08820 | 995 ft | 2 kts | 179° |
| 2026-05-06 16:24 | 50.47173 | 19.08820 | 994 ft | 0 kts | 178° |
| 2026-05-06 16:27 | 50.47186 | 19.08819 | 992 ft | 3 kts | 176° |
| 2026-05-06 16:27 | 50.47206 | 19.08816 | 996 ft | 3 kts | 167° |
| 2026-05-06 16:27 | 50.47224 | 19.08807 | 994 ft | 3 kts | 136° |
| 2026-05-06 16:27 | 50.47231 | 19.08796 | 996 ft | 2 kts | 100° |
| 2026-05-06 16:28 | 50.47232 | 19.08782 | 992 ft | 1 kts | 90° |
| 2026-05-06 16:28 | 50.47232 | 19.08781 | 992 ft | 0 kts | 90° |
| 2026-05-06 16:30 | 50.47231 | 19.08900 | 992 ft | 19 kts | 90° |
| 2026-05-06 16:31 | 50.47231 | 19.09103 | 996 ft | 18 kts | 91° |
| 2026-05-06 16:31 | 50.47231 | 19.09285 | 992 ft | 16 kts | 91° |
| 2026-05-06 16:31 | 50.47231 | 19.09460 | 992 ft | 17 kts | 90° |
| 2026-05-06 16:31 | 50.47230 | 19.09631 | 992 ft | 16 kts | 90° |
| 2026-05-06 16:32 | 50.47229 | 19.09825 | 992 ft | 18 kts | 90° |
| 2026-05-06 16:32 | 50.47233 | 19.10011 | 995 ft | 16 kts | 65° |
| 2026-05-06 16:32 | 50.47290 | 19.10130 | 992 ft | 13 kts | 52° |
| 2026-05-06 16:32 | 50.47345 | 19.10243 | 992 ft | 13 kts | 51° |
| 2026-05-06 16:33 | 50.47392 | 19.10337 | 996 ft | 8 kts | 52° |
| 2026-05-06 16:33 | 50.47410 | 19.10372 | 992 ft | 0 kts | 52° |
| 2026-05-06 16:34 | 50.47418 | 19.10390 | 992 ft | 6 kts | 52° |
| 2026-05-06 16:35 | 50.47470 | 19.10443 | 992 ft | 12 kts | 2° |
| 2026-05-06 16:35 | 50.47561 | 19.10450 | 994 ft | 13 kts | 9° |
| 2026-05-06 16:35 | 50.47594 | 19.10333 | 991 ft | 24 kts | 270° |
| 2026-05-06 16:35 | 50.47589 | 19.09723 | 992 ft | 86 kts | 265° |
| 2026-05-06 16:36 | 50.47595 | 19.08610 | 1248 ft | 109 kts | 268° |
| 2026-05-06 16:36 | 50.47626 | 19.07374 | 1678 ft | 119 kts | 265° |
| 2026-05-06 16:36 | 50.47640 | 19.05878 | 1758 ft | 155 kts | 266° |
| 2026-05-06 16:36 | 50.47635 | 19.03889 | 1714 ft | 206 kts | 268° |
| 2026-05-06 16:37 | 50.47640 | 19.01660 | 1753 ft | 198 kts | 268° |
| 2026-05-06 16:37 | 50.47803 | 18.99539 | 1717 ft | 199 kts | 282° |
| 2026-05-06 16:37 | 50.48332 | 18.97638 | 2203 ft | 186 kts | 295° |
| 2026-05-06 16:37 | 50.49114 | 18.96111 | 3109 ft | 175 kts | 308° |
| 2026-05-06 16:38 | 50.50115 | 18.94920 | 3612 ft | 180 kts | 325° |
| 2026-05-06 16:38 | 50.51250 | 18.94141 | 4269 ft | 182 kts | 338° |
| 2026-05-06 16:38 | 50.52513 | 18.93840 | 4789 ft | 188 kts | 354° |
| 2026-05-06 16:38 | 50.53867 | 18.93859 | 5116 ft | 203 kts | 356° |
| 2026-05-06 16:39 | 50.55347 | 18.93844 | 5303 ft | 221 kts | 357° |
| 2026-05-06 16:39 | 50.56939 | 18.93851 | 5514 ft | 233 kts | 357° |
| 2026-05-06 16:39 | 50.58566 | 18.93866 | 5884 ft | 236 kts | 357° |
| 2026-05-06 16:39 | 50.60216 | 18.93875 | 6293 ft | 238 kts | 357° |
| 2026-05-06 16:40 | 50.61862 | 18.94110 | 6670 ft | 241 kts | 13° |
| 2026-05-06 16:40 | 50.63397 | 18.95175 | 7084 ft | 241 kts | 31° |
| 2026-05-06 16:40 | 50.64652 | 18.96930 | 7436 ft | 244 kts | 52° |
| 2026-05-06 16:40 | 50.65494 | 18.99202 | 7810 ft | 243 kts | 71° |
| 2026-05-06 16:41 | 50.65857 | 19.01808 | 7971 ft | 250 kts | 91° |
| 2026-05-06 16:41 | 50.65819 | 19.04617 | 7976 ft | 262 kts | 96° |
| 2026-05-06 16:41 | 50.65789 | 19.07542 | 7979 ft | 271 kts | 94° |
| 2026-05-06 16:41 | 50.65775 | 19.10543 | 7978 ft | 277 kts | 94° |
| 2026-05-06 16:42 | 50.65770 | 19.13599 | 7977 ft | 280 kts | 94° |
| 2026-05-06 16:42 | 50.65759 | 19.16676 | 7972 ft | 281 kts | 94° |